Time;durP1;ratioP1;P1;durP2;ratioP2;P2;SDS_P1;SDS_P2;PMS_P1;PMS_P2;Temp;Humidity;BMP_temperature;BMP_pressure;BME280_temperature;BME280_humidity;BME280_pressure;Samples;Min_cycle;Max_cycle;Signal;HPM_P1;HPM_P2
2023/06/10 00:02:09;;;;;;;9.52;4.20;;;17.80;99.90;;;;;;5040073;28;20505;-80
2023/06/10 00:04:36;;;;;;;7.05;4.78;;;17.70;99.90;;;;;;5038894;28;20485;-80
2023/06/10 00:07:03;;;;;;;6.13;4.38;;;17.90;99.90;;;;;;5040300;28;20037;-81
2023/06/10 00:09:29;;;;;;;5.70;4.32;;;17.70;99.90;;;;;;5039327;28;20044;-79
2023/06/10 00:11:55;;;;;;;6.78;4.25;;;18.80;99.90;;;;;;5037462;28;20037;-80
2023/06/10 00:14:20;;;;;;;10.25;4.47;;;17.60;99.90;;;;;;5036390;28;20041;-80
2023/06/10 00:16:46;;;;;;;9.05;4.45;;;17.60;99.90;;;;;;5040139;28;20033;-80
2023/06/10 00:19:13;;;;;;;7.93;4.30;;;17.60;99.90;;;;;;5040619;28;20036;-80
2023/06/10 00:21:40;;;;;;;9.43;4.45;;;17.90;99.90;;;;;;5037613;28;20460;-80
2023/06/10 00:24:11;;;;;;;6.47;4.00;;;17.50;99.90;;;;;;5037695;28;20045;-80
2023/06/10 00:26:41;;;;;;;8.93;4.30;;;17.40;99.90;;;;;;5038639;28;20073;-80
2023/06/10 00:29:08;;;;;;;9.23;4.47;;;17.40;99.90;;;;;;5022124;28;20029;-81
2023/06/10 00:31:37;;;;;;;11.25;4.32;;;17.30;99.90;;;;;;5039028;28;20097;-80
2023/06/10 00:34:03;;;;;;;9.02;4.47;;;17.30;99.90;;;;;;5019463;28;20050;-81
2023/06/10 00:36:29;;;;;;;7.88;4.60;;;17.30;99.90;;;;;;5036264;28;20099;-81
2023/06/10 00:38:55;;;;;;;6.28;4.65;;;17.30;99.90;;;;;;5043824;28;20044;-81
2023/06/10 00:41:21;;;;;;;8.57;4.30;;;17.20;99.90;;;;;;5044289;28;20096;-81
2023/06/10 00:43:47;;;;;;;10.02;4.68;;;17.90;99.90;;;;;;5043646;28;20072;-80
2023/06/10 00:46:13;;;;;;;9.75;4.93;;;17.60;99.90;;;;;;5043990;28;20076;-80
2023/06/10 00:48:41;;;;;;;8.32;4.75;;;17.30;99.90;;;;;;5024594;28;20055;-81
2023/06/10 00:51:08;;;;;;;9.13;4.57;;;18.80;99.90;;;;;;5040712;28;20046;-81
2023/06/10 00:53:36;;;;;;;8.27;4.45;;;17.10;99.90;;;;;;5023965;28;20096;-81
2023/06/10 00:56:03;;;;;;;8.15;4.47;;;18.30;99.90;;;;;;5043676;28;20443;-82
2023/06/10 00:58:28;;;;;;;8.27;4.30;;;17.10;99.90;;;;;;5043565;28;20040;-81
2023/06/10 01:00:54;;;;;;;5.60;4.40;;;17.00;99.90;;;;;;5040621;28;20402;-81
2023/06/10 01:03:20;;;;;;;9.40;5.20;;;17.00;99.90;;;;;;5039615;28;20045;-81
2023/06/10 01:06:03;;;;;;;9.65;4.68;;;17.00;99.90;;;;;;5042776;28;20038;-82
2023/06/10 01:08:36;;;;;;;7.50;4.68;;;17.00;99.90;;;;;;5043911;28;20049;-81
2023/06/10 01:11:07;;;;;;;7.07;4.63;;;16.90;99.90;;;;;;5039206;28;20052;-82
2023/06/10 01:13:36;;;;;;;6.63;3.83;;;16.90;99.90;;;;;;5023297;28;20038;-81
2023/06/10 01:16:02;;;;;;;7.97;4.32;;;17.70;99.90;;;;;;5009513;28;20444;-81
2023/06/10 01:18:31;;;;;;;6.38;4.40;;;16.80;99.90;;;;;;5042768;28;20045;-81
2023/06/10 01:20:57;;;;;;;8.73;4.43;;;17.20;99.90;;;;;;5026866;28;20049;-81
2023/06/10 01:23:23;;;;;;;7.40;4.78;;;17.60;99.90;;;;;;5040106;28;20448;-81
2023/06/10 01:26:09;;;;;;;8.38;5.03;;;16.70;99.90;;;;;;5042503;28;20076;-80
2023/06/10 01:28:54;;;;;;;8.63;4.45;;;16.80;99.90;;;;;;5042339;28;20504;-81
2023/06/10 01:31:36;;;;;;;7.22;4.97;;;16.70;99.90;;;;;;5039656;28;20481;-81
2023/06/10 01:34:06;;;;;;;10.40;4.45;;;17.20;99.90;;;;;;5024998;28;20049;-81
2023/06/10 01:36:34;;;;;;;10.70;4.57;;;17.80;99.90;;;;;;5040047;28;20207;-82
2023/06/10 01:39:02;;;;;;;9.18;5.05;;;16.60;99.90;;;;;;5025730;28;20128;-82
2023/06/10 01:41:29;;;;;;;9.25;5.07;;;16.60;99.90;;;;;;5048155;28;20483;-81
2023/06/10 01:43:54;;;;;;;8.10;5.25;;;18.30;99.90;;;;;;5031747;28;20505;-81
2023/06/10 01:46:21;;;;;;;8.73;4.93;;;17.80;99.90;;;;;;5023549;28;20100;-82
2023/06/10 01:48:47;;;;;;;12.15;5.13;;;17.40;99.90;;;;;;5041865;28;20103;-81
2023/06/10 01:51:13;;;;;;;12.95;5.35;;;16.60;99.90;;;;;;5042963;28;20131;-81
2023/06/10 01:53:38;;;;;;;9.98;5.75;;;16.50;99.90;;;;;;5041249;28;20096;-82
2023/06/10 01:56:04;;;;;;;5.78;5.15;;;16.40;99.90;;;;;;5039446;28;20076;-81
2023/06/10 01:58:30;;;;;;;11.63;5.90;;;16.40;99.90;;;;;;5039347;28;20450;-82
2023/06/10 02:00:56;;;;;;;8.93;5.50;;;16.40;99.90;;;;;;5004657;28;20041;-82
2023/06/10 02:03:22;;;;;;;7.15;5.25;;;16.70;99.90;;;;;;5021066;28;20049;-81
2023/06/10 02:05:47;;;;;;;8.80;6.68;;;16.30;99.90;;;;;;5041589;28;20118;-81
2023/06/10 02:08:13;;;;;;;11.77;6.00;;;16.30;99.90;;;;;;5042245;28;20043;-81
2023/06/10 02:10:39;;;;;;;7.97;6.40;;;16.40;99.90;;;;;;5023819;28;20538;-81
2023/06/10 02:13:05;;;;;;;11.40;6.28;;;16.20;99.90;;;;;;5038702;28;20037;-80
2023/06/10 02:15:30;;;;;;;7.90;5.65;;;17.10;99.90;;;;;;5021164;28;20147;-81
2023/06/10 02:17:56;;;;;;;8.68;6.20;;;15.70;99.90;;;;;;5042659;28;20047;-81
2023/06/10 02:20:22;;;;;;;11.27;6.25;;;17.10;99.90;;;;;;5041621;28;20051;-81
2023/06/10 02:22:47;;;;;;;11.52;7.18;;;16.10;99.90;;;;;;5040108;28;20408;-82
2023/06/10 02:25:13;;;;;;;10.27;6.50;;;16.10;99.90;;;;;;5038542;28;20580;-81
2023/06/10 02:27:39;;;;;;;8.80;6.13;;;16.10;99.90;;;;;;5021179;28;20053;-81
2023/06/10 02:30:05;;;;;;;10.88;6.03;;;16.30;99.90;;;;;;5042543;28;20041;-78
2023/06/10 02:32:31;;;;;;;9.93;6.47;;;16.00;99.90;;;;;;5024227;28;20029;-80
2023/06/10 02:34:57;;;;;;;8.40;5.95;;;16.00;99.90;;;;;;5038157;28;20091;-80
2023/06/10 02:37:23;;;;;;;11.55;6.20;;;16.00;99.90;;;;;;5020423;28;20057;-80
2023/06/10 02:39:49;;;;;;;8.90;6.47;;;15.70;99.90;;;;;;5040440;28;20048;-80
2023/06/10 02:42:14;;;;;;;8.18;6.68;;;16.30;99.90;;;;;;5041080;28;20037;-80
2023/06/10 02:44:40;;;;;;;10.45;5.88;;;15.80;99.90;;;;;;5040927;28;20049;-79
2023/06/10 02:47:06;;;;;;;9.25;5.55;;;15.80;99.90;;;;;;5038554;28;20099;-80
2023/06/10 02:49:31;;;;;;;9.32;5.35;;;15.80;99.90;;;;;;5003576;28;20056;-81
2023/06/10 02:51:57;;;;;;;8.63;5.82;;;16.70;99.90;;;;;;5007960;28;20051;-79
2023/06/10 02:54:24;;;;;;;7.65;4.78;;;15.70;99.90;;;;;;5041336;28;20052;-80
2023/06/10 02:56:50;;;;;;;11.48;5.13;;;16.00;99.90;;;;;;5021933;28;20127;-80
2023/06/10 02:59:16;;;;;;;8.48;4.68;;;15.50;99.90;;;;;;5038154;28;20513;-80
2023/06/10 03:01:42;;;;;;;7.13;4.88;;;15.40;99.90;;;;;;5038289;28;20045;-79
2023/06/10 03:04:08;;;;;;;8.25;4.70;;;15.70;99.90;;;;;;5040860;28;20036;-79
2023/06/10 03:06:35;;;;;;;8.88;4.53;;;15.40;99.90;;;;;;5041627;28;20112;-80
2023/06/10 03:09:01;;;;;;;6.90;4.43;;;15.40;99.90;;;;;;5020212;28;20095;-79
2023/06/10 03:11:26;;;;;;;7.30;3.97;;;15.30;99.90;;;;;;5037690;28;20184;-79
2023/06/10 03:13:53;;;;;;;6.35;4.15;;;16.50;99.90;;;;;;5022765;28;20124;-80
2023/06/10 03:16:19;;;;;;;8.95;4.93;;;15.30;99.90;;;;;;5022651;28;20059;-79
2023/06/10 03:18:45;;;;;;;5.55;4.38;;;15.30;99.90;;;;;;5040323;28;20094;-80
2023/06/10 03:21:11;;;;;;;9.63;4.25;;;15.30;99.90;;;;;;5038306;28;20038;-80
2023/06/10 03:23:37;;;;;;;9.52;4.43;;;15.30;99.90;;;;;;5037890;28;20037;-79
2023/06/10 03:26:04;;;;;;;6.07;3.75;;;15.90;99.90;;;;;;5017435;28;20051;-80
2023/06/10 03:28:30;;;;;;;7.15;4.28;;;16.80;99.90;;;;;;5050953;28;20052;-80
2023/06/10 03:30:57;;;;;;;9.30;4.28;;;16.00;99.90;;;;;;5044123;28;20122;-81
2023/06/10 03:33:22;;;;;;;6.50;4.00;;;15.50;99.90;;;;;;5019912;28;20045;-80
2023/06/10 03:35:48;;;;;;;9.05;5.07;;;15.20;99.90;;;;;;5038667;28;20124;-80
2023/06/10 03:38:14;;;;;;;7.88;4.25;;;15.40;99.90;;;;;;5040891;28;20551;-81
2023/06/10 03:40:40;;;;;;;8.00;4.55;;;15.10;99.90;;;;;;5040449;28;20397;-81
2023/06/10 03:43:05;;;;;;;13.18;4.70;;;16.40;99.90;;;;;;5037096;28;20393;-79
2023/06/10 03:45:31;;;;;;;8.90;4.28;;;15.00;99.90;;;;;;5017937;28;20044;-79
2023/06/10 03:47:58;;;;;;;10.73;4.53;;;16.60;99.90;;;;;;5038218;28;20405;-80
2023/06/10 03:50:24;;;;;;;8.20;4.63;;;14.50;99.90;;;;;;5037091;28;20554;-80
2023/06/10 03:52:50;;;;;;;9.77;4.85;;;15.30;99.90;;;;;;5038155;28;20393;-80
2023/06/10 03:55:16;;;;;;;11.18;4.68;;;15.00;99.90;;;;;;5022738;28;20055;-80
2023/06/10 03:57:42;;;;;;;9.45;4.68;;;15.90;99.90;;;;;;5039901;28;20040;-80
2023/06/10 04:00:12;;;;;;;9.73;4.50;;;15.00;99.90;;;;;;5036579;28;20119;-80
2023/06/10 04:02:45;;;;;;;9.38;5.70;;;15.00;99.90;;;;;;5018891;28;20044;-80
2023/06/10 04:05:18;;;;;;;10.73;5.27;;;15.00;99.90;;;;;;5003737;28;20029;-80
2023/06/10 04:07:44;;;;;;;10.73;5.50;;;15.00;99.90;;;;;;5036685;28;20076;-80
2023/06/10 04:10:10;;;;;;;10.63;5.03;;;16.70;99.90;;;;;;5040325;28;20472;-80
2023/06/10 04:12:36;;;;;;;8.23;6.03;;;15.00;99.90;;;;;;5039612;28;20406;-80
2023/06/10 04:15:04;;;;;;;11.73;6.55;;;15.00;99.90;;;;;;5037834;28;20132;-80
2023/06/10 04:17:30;;;;;;;10.98;7.15;;;15.00;99.90;;;;;;5017820;28;20086;-80
2023/06/10 04:19:55;;;;;;;12.95;6.97;;;15.10;99.90;;;;;;5021176;28;20083;-80
2023/06/10 04:22:22;;;;;;;10.15;7.95;;;15.10;99.90;;;;;;5038419;28;20049;-80
2023/06/10 04:24:48;;;;;;;11.15;7.05;;;15.70;99.90;;;;;;5039476;28;20383;-80
2023/06/10 04:27:13;;;;;;;11.70;6.07;;;15.10;99.90;;;;;;5037562;28;20052;-80
2023/06/10 04:29:39;;;;;;;9.93;6.68;;;15.10;99.90;;;;;;5039165;28;20043;-80
2023/06/10 04:32:06;;;;;;;12.27;6.18;;;15.10;99.90;;;;;;5041244;28;20492;-80
2023/06/10 04:34:33;;;;;;;12.23;6.60;;;15.40;99.90;;;;;;5040242;28;20481;-81
2023/06/10 04:36:59;;;;;;;7.57;5.30;;;15.10;99.90;;;;;;5008439;28;20057;-79
2023/06/10 04:39:24;;;;;;;10.38;5.30;;;15.10;99.90;;;;;;5021267;28;20045;-79
2023/06/10 04:41:51;;;;;;;14.93;5.30;;;15.50;99.90;;;;;;5001933;28;20382;-80
2023/06/10 04:44:17;;;;;;;10.18;5.13;;;15.70;99.90;;;;;;5000383;28;20038;-79
2023/06/10 04:46:42;;;;;;;10.30;5.63;;;15.00;99.90;;;;;;5018079;28;20048;-80
2023/06/10 04:49:08;;;;;;;8.55;5.07;;;15.10;99.90;;;;;;5020398;28;20037;-80
2023/06/10 04:51:34;;;;;;;11.15;5.78;;;15.80;99.90;;;;;;5021158;28;20464;-80
2023/06/10 04:54:03;;;;;;;10.65;5.10;;;15.00;99.90;;;;;;5019163;28;20042;-80
2023/06/10 04:56:30;;;;;;;11.38;4.90;;;15.90;99.90;;;;;;4999190;28;20049;-80
2023/06/10 04:58:56;;;;;;;10.68;4.60;;;14.90;99.90;;;;;;5019475;28;20073;-80
2023/06/10 05:01:22;;;;;;;6.78;4.88;;;15.90;99.90;;;;;;5020460;28;20452;-80
2023/06/10 05:03:48;;;;;;;15.20;6.10;;;15.00;99.90;;;;;;5021338;28;20466;-80
2023/06/10 05:06:14;;;;;;;9.70;5.40;;;15.20;99.90;;;;;;5002782;28;20510;-80
2023/06/10 05:08:40;;;;;;;8.52;4.93;;;15.10;99.90;;;;;;5020975;28;20115;-80
2023/06/10 05:11:06;;;;;;;11.63;5.05;;;15.20;99.90;;;;;;5018108;28;20096;-79
2023/06/10 05:13:31;;;;;;;15.60;5.05;;;16.20;99.90;;;;;;5027050;28;20104;-80
2023/06/10 05:15:57;;;;;;;13.77;5.05;;;15.10;99.90;;;;;;5007115;28;20491;-80
2023/06/10 05:18:23;;;;;;;10.90;5.35;;;15.10;99.90;;;;;;5023959;28;20038;-80
2023/06/10 05:20:49;;;;;;;8.88;5.15;;;15.60;99.90;;;;;;5017037;28;20554;-80
2023/06/10 05:23:15;;;;;;;11.25;4.97;;;15.70;99.90;;;;;;5024803;28;20402;-80
2023/06/10 05:25:41;;;;;;;9.38;5.15;;;15.20;99.90;;;;;;5020251;28;20568;-80
2023/06/10 05:28:09;;;;;;;11.38;5.85;;;16.70;99.90;;;;;;5022456;28;20135;-81
2023/06/10 05:30:35;;;;;;;10.80;5.63;;;15.20;99.90;;;;;;5024672;28;20046;-80
2023/06/10 05:33:01;;;;;;;9.98;5.10;;;15.30;99.90;;;;;;5022715;28;20041;-80
2023/06/10 05:35:27;;;;;;;10.52;5.03;;;15.60;99.90;;;;;;5022293;28;20048;-81
2023/06/10 05:37:52;;;;;;;10.95;5.10;;;15.40;99.90;;;;;;5040617;28;20273;-80
2023/06/10 05:40:18;;;;;;;8.15;5.18;;;15.60;99.90;;;;;;5043809;28;20045;-80
2023/06/10 05:42:45;;;;;;;9.23;5.28;;;15.40;99.90;;;;;;5043876;28;20130;-80
2023/06/10 05:45:11;;;;;;;13.13;5.82;;;15.40;99.90;;;;;;5040085;28;20037;-80
2023/06/10 05:47:36;;;;;;;12.40;5.35;;;15.40;99.90;;;;;;5039927;28;20049;-80
2023/06/10 05:50:06;;;;;;;7.35;4.43;;;15.50;99.90;;;;;;5023695;28;20079;-80
2023/06/10 05:52:36;;;;;;;12.00;5.70;;;15.40;99.90;;;;;;5039547;28;20042;-80
2023/06/10 05:55:05;;;;;;;12.48;5.30;;;15.40;99.90;;;;;;5041472;28;20037;-80
2023/06/10 05:57:31;;;;;;;13.50;5.97;;;15.50;99.90;;;;;;5043530;28;20448;-80
2023/06/10 05:59:56;;;;;;;12.27;5.90;;;15.50;99.90;;;;;;5024469;28;20052;-80
2023/06/10 06:02:22;;;;;;;9.63;5.32;;;15.50;99.90;;;;;;5039344;28;20053;-80
2023/06/10 06:04:48;;;;;;;10.75;4.95;;;15.50;99.90;;;;;;5039182;28;20052;-80
2023/06/10 06:07:13;;;;;;;11.80;5.63;;;15.60;99.90;;;;;;5005103;28;20099;-80
2023/06/10 06:09:39;;;;;;;10.48;5.22;;;15.60;99.90;;;;;;5039408;28;20108;-80
2023/06/10 06:12:07;;;;;;;10.60;5.13;;;15.70;99.90;;;;;;5047853;28;20045;-81
2023/06/10 06:14:36;;;;;;;12.68;5.38;;;15.70;99.90;;;;;;5039678;28;20045;-81
2023/06/10 06:17:02;;;;;;;10.60;5.25;;;16.80;99.90;;;;;;5048398;28;20416;-81
2023/06/10 06:19:28;;;;;;;7.43;4.80;;;15.80;99.90;;;;;;5038677;28;20046;-80
2023/06/10 06:21:53;;;;;;;10.30;4.88;;;16.10;99.90;;;;;;5021897;28;20511;-81
2023/06/10 06:24:19;;;;;;;7.13;4.82;;;15.90;99.90;;;;;;5039031;28;20045;-80
2023/06/10 06:26:45;;;;;;;16.63;4.53;;;15.90;99.90;;;;;;5039216;28;20049;-81
2023/06/10 06:29:10;;;;;;;8.40;5.32;;;16.00;99.90;;;;;;5041435;28;20120;-80
2023/06/10 06:31:36;;;;;;;13.55;5.60;;;16.00;99.90;;;;;;5037199;28;20068;-81
2023/06/10 06:34:02;;;;;;;11.05;5.10;;;16.90;99.90;;;;;;5047564;28;20048;-80
2023/06/10 06:36:28;;;;;;;8.80;4.95;;;16.10;99.90;;;;;;5040924;28;20075;-80
2023/06/10 06:38:53;;;;;;;7.93;4.53;;;16.00;99.90;;;;;;5050326;28;20076;-79
2023/06/10 06:41:19;;;;;;;17.40;5.75;;;16.10;99.90;;;;;;5022560;28;20416;-80
2023/06/10 06:43:45;;;;;;;8.95;4.75;;;16.10;99.90;;;;;;5040327;28;20045;-80
2023/06/10 06:46:16;;;;;;;13.75;5.80;;;17.20;99.90;;;;;;5040272;28;20071;-79
2023/06/10 06:48:42;;;;;;;10.60;5.70;;;16.20;99.90;;;;;;5042329;28;20044;-81
2023/06/10 06:51:07;;;;;;;8.07;6.05;;;16.20;99.90;;;;;;5041404;28;20041;-81
2023/06/10 06:53:33;;;;;;;11.80;5.93;;;16.30;99.90;;;;;;5022310;28;20539;-81
2023/06/10 06:55:58;;;;;;;10.20;6.13;;;16.70;99.90;;;;;;5042579;28;20045;-81
2023/06/10 06:58:24;;;;;;;12.13;5.95;;;16.70;99.90;;;;;;5052965;28;20496;-81
2023/06/10 07:00:58;;;;;;;11.95;5.40;;;16.40;99.90;;;;;;5044522;28;20052;-81
2023/06/10 07:03:24;;;;;;;12.13;5.85;;;16.50;99.90;;;;;;5022755;28;20099;-80
2023/06/10 07:05:49;;;;;;;12.43;6.07;;;16.50;99.90;;;;;;5038867;28;20125;-80
2023/06/10 07:08:15;;;;;;;8.38;4.68;;;16.50;99.90;;;;;;5041908;28;20060;-81
2023/06/10 07:10:41;;;;;;;12.68;5.68;;;16.90;99.90;;;;;;5042359;28;20049;-81
2023/06/10 07:13:06;;;;;;;10.52;5.30;;;16.70;99.90;;;;;;5047717;28;20107;-81
2023/06/10 07:15:33;;;;;;;9.10;5.07;;;16.80;99.90;;;;;;5041323;28;20035;-80
2023/06/10 07:17:58;;;;;;;6.28;4.80;;;17.60;99.90;;;;;;5025391;28;20088;-81
2023/06/10 07:20:24;;;;;;;7.90;4.55;;;18.20;99.90;;;;;;5038562;28;20061;-81
2023/06/10 07:22:49;;;;;;;7.38;4.47;;;17.10;99.90;;;;;;5038481;28;20060;-80
2023/06/10 07:25:15;;;;;;;9.52;4.93;;;18.20;99.90;;;;;;5040981;28;20099;-81
2023/06/10 07:27:41;;;;;;;9.02;4.45;;;17.00;99.90;;;;;;5041301;28;20048;-81
2023/06/10 07:30:08;;;;;;;7.90;4.28;;;17.50;99.90;;;;;;5040155;28;20041;-81
2023/06/10 07:32:34;;;;;;;9.75;3.85;;;17.20;99.90;;;;;;5038968;28;20037;-81
2023/06/10 07:35:00;;;;;;;11.13;4.53;;;17.20;99.90;;;;;;5028724;28;20049;-81
2023/06/10 07:37:25;;;;;;;8.23;4.35;;;17.30;99.90;;;;;;5039912;28;20061;-81
2023/06/10 07:39:51;;;;;;;7.95;4.50;;;17.30;99.90;;;;;;5041118;28;20033;-81
2023/06/10 07:42:16;;;;;;;9.93;4.45;;;17.30;99.90;;;;;;5038706;28;20040;-81
2023/06/10 07:44:42;;;;;;;12.23;4.43;;;17.40;99.90;;;;;;5041864;28;20687;-81
2023/06/10 07:47:08;;;;;;;6.55;4.40;;;17.50;99.90;;;;;;5039709;28;20036;-81
2023/06/10 07:49:33;;;;;;;8.43;4.57;;;17.70;99.90;;;;;;5038301;28;20053;-81
2023/06/10 07:51:59;;;;;;;8.70;5.15;;;18.60;99.90;;;;;;5038477;28;20513;-81
2023/06/10 07:54:25;;;;;;;8.48;4.85;;;17.60;99.90;;;;;;5036942;28;20496;-81
2023/06/10 07:56:52;;;;;;;7.25;3.78;;;17.70;99.90;;;;;;5037565;28;20033;-81
2023/06/10 07:59:18;;;;;;;6.05;4.13;;;17.70;99.90;;;;;;5038430;28;20053;-81
2023/06/10 08:01:45;;;;;;;9.27;4.20;;;17.80;99.90;;;;;;5022751;28;20040;-81
2023/06/10 08:04:11;;;;;;;10.90;4.90;;;18.70;99.90;;;;;;5039620;28;20083;-81
2023/06/10 08:06:36;;;;;;;8.18;4.00;;;18.60;99.90;;;;;;5036552;28;20065;-81
2023/06/10 08:09:06;;;;;;;5.88;4.68;;;18.40;99.90;;;;;;5020521;28;20053;-80
2023/06/10 08:11:34;;;;;;;8.35;4.80;;;18.10;99.90;;;;;;5012820;28;20417;-80
2023/06/10 08:13:59;;;;;;;8.10;3.80;;;18.20;99.90;;;;;;5037141;28;20044;-80
2023/06/10 08:16:25;;;;;;;6.93;3.92;;;18.60;99.90;;;;;;5037659;28;20044;-80
2023/06/10 08:18:52;;;;;;;4.63;3.65;;;18.30;99.90;;;;;;5039152;28;20400;-80
2023/06/10 08:21:18;;;;;;;7.85;4.05;;;18.20;99.90;;;;;;5023434;28;20049;-80
2023/06/10 08:23:44;;;;;;;6.03;3.75;;;18.30;99.90;;;;;;5040184;28;20041;-79
2023/06/10 08:26:09;;;;;;;10.98;4.25;;;18.40;99.90;;;;;;5042112;28;20036;-80
2023/06/10 08:28:35;;;;;;;6.03;4.03;;;18.50;99.90;;;;;;5040324;28;20033;-80
2023/06/10 08:31:00;;;;;;;5.97;4.20;;;18.60;99.90;;;;;;5037804;28;20049;-80
2023/06/10 08:33:26;;;;;;;7.43;3.92;;;18.60;99.90;;;;;;5038745;28;20053;-81
2023/06/10 08:35:51;;;;;;;7.05;4.03;;;19.70;99.90;;;;;;5016826;28;20060;-80
2023/06/10 08:38:17;;;;;;;9.00;4.20;;;18.80;99.90;;;;;;5019999;28;20057;-80
2023/06/10 08:40:43;;;;;;;7.75;4.53;;;19.10;99.90;;;;;;5022414;28;20046;-80
2023/06/10 08:43:28;;;;;;;8.73;3.90;;;18.80;99.90;;;;;;5025108;28;20041;-80
2023/06/10 08:45:59;;;;;;;6.97;4.38;;;18.80;99.90;;;;;;5004571;28;20112;-81
2023/06/10 08:48:29;;;;;;;7.55;4.10;;;18.90;99.90;;;;;;5017976;28;20438;-81
2023/06/10 08:50:57;;;;;;;7.50;4.43;;;20.00;99.90;;;;;;5018509;28;20041;-81
2023/06/10 08:53:24;;;;;;;6.18;3.83;;;20.00;99.90;;;;;;5003211;28;20405;-81
2023/06/10 08:55:51;;;;;;;10.45;3.67;;;19.00;99.90;;;;;;5019488;28;20490;-78
2023/06/10 08:58:18;;;;;;;7.03;4.00;;;19.10;99.90;;;;;;5020288;28;20033;-79
2023/06/10 09:00:44;;;;;;;5.47;4.20;;;19.20;99.90;;;;;;5020699;28;20118;-78
2023/06/10 09:03:11;;;;;;;5.72;4.10;;;19.30;99.90;;;;;;5020302;28;20555;-78
2023/06/10 09:05:37;;;;;;;6.72;3.20;;;19.40;99.90;;;;;;5024135;28;20126;-79
2023/06/10 09:08:04;;;;;;;7.50;4.22;;;19.90;99.90;;;;;;5024025;28;20041;-79
2023/06/10 09:10:30;;;;;;;6.97;3.80;;;19.60;99.90;;;;;;5021555;28;20272;-79
2023/06/10 09:12:55;;;;;;;8.10;3.88;;;19.60;99.90;;;;;;5020853;28;20049;-79
2023/06/10 09:15:21;;;;;;;10.63;6.00;;;19.80;99.90;;;;;;5020599;28;20133;-79
2023/06/10 09:17:47;;;;;;;7.88;4.95;;;19.70;99.90;;;;;;5024197;28;20038;-79
2023/06/10 09:20:13;;;;;;;6.95;3.67;;;19.70;99.90;;;;;;5023977;28;20037;-78
2023/06/10 09:22:38;;;;;;;5.88;3.05;;;19.70;99.90;;;;;;5002413;28;20100;-79
2023/06/10 09:25:08;;;;;;;8.32;3.58;;;19.80;99.90;;;;;;5020199;28;20038;-79
2023/06/10 09:27:50;;;;;;;7.13;3.42;;;19.80;99.90;;;;;;5022728;28;20785;-80
2023/06/10 09:30:33;;;;;;;7.22;3.28;;;19.90;99.90;;;;;;5026529;28;20037;-79
2023/06/10 09:33:09;;;;;;;8.93;3.30;;;20.00;99.90;;;;;;5020356;28;20042;-79
2023/06/10 09:35:35;;;;;;;5.35;3.67;;;20.10;99.90;;;;;;5025552;28;20057;-79
2023/06/10 09:38:02;;;;;;;7.70;3.80;;;20.00;99.90;;;;;;5024908;28;20546;-79
2023/06/10 09:40:28;;;;;;;8.90;3.10;;;20.10;99.90;;;;;;5041197;28;20084;-79
2023/06/10 09:42:55;;;;;;;7.75;3.42;;;20.20;99.90;;;;;;5039916;28;20072;-79
2023/06/10 09:45:21;;;;;;;4.85;3.08;;;20.20;99.90;;;;;;5021995;28;20053;-78
2023/06/10 09:47:51;;;;;;;4.55;3.20;;;20.30;99.90;;;;;;5040229;28;20047;-79
2023/06/10 09:50:17;;;;;;;7.80;3.53;;;20.60;99.90;;;;;;5021419;28;20033;-80
2023/06/10 09:52:45;;;;;;;7.30;3.42;;;20.50;99.90;;;;;;5032271;28;20037;-80
2023/06/10 09:55:11;;;;;;;7.43;2.83;;;20.60;99.90;;;;;;5040133;28;20048;-80
2023/06/10 09:57:36;;;;;;;9.15;4.07;;;20.70;99.90;;;;;;5021362;28;20029;-80
2023/06/10 10:00:10;;;;;;;7.68;3.10;;;20.80;99.90;;;;;;5040563;28;20042;-80
2023/06/10 10:02:50;;;;;;;7.53;3.22;;;20.80;99.90;;;;;;5041400;28;20056;-81
2023/06/10 10:05:17;;;;;;;8.95;3.20;;;21.00;99.90;;;;;;5041687;28;20037;-81
2023/06/10 10:07:44;;;;;;;7.35;3.72;;;21.10;99.90;;;;;;5039621;28;20057;-81
2023/06/10 10:10:10;;;;;;;9.18;3.53;;;22.00;99.90;;;;;;5038877;28;20038;-80
2023/06/10 10:12:40;;;;;;;6.22;2.92;;;21.20;99.90;;;;;;5040639;28;20370;-81
2023/06/10 10:15:08;;;;;;;5.45;3.30;;;21.80;99.90;;;;;;5042581;28;20097;-81
2023/06/10 10:17:46;;;;;;;8.32;3.65;;;21.30;99.90;;;;;;5041330;28;20125;-81
2023/06/10 10:20:15;;;;;;;6.25;3.28;;;21.60;99.90;;;;;;5013609;28;20417;-80
2023/06/10 10:22:43;;;;;;;9.65;3.22;;;21.50;99.90;;;;;;5047269;28;20053;-81
2023/06/10 10:25:16;;;;;;;5.15;3.28;;;21.50;99.90;;;;;;5032152;28;20488;-81
2023/06/10 10:27:51;;;;;;;8.10;3.33;;;21.60;99.90;;;;;;5043647;28;20063;-81
2023/06/10 10:30:19;;;;;;;11.40;3.17;;;21.70;99.90;;;;;;5035025;28;20037;-81
2023/06/10 10:33:04;;;;;;;6.10;3.20;;;21.80;99.90;;;;;;5021361;28;20037;-81
2023/06/10 10:35:32;;;;;;;5.95;2.67;;;21.80;99.90;;;;;;5037872;28;20053;-80
2023/06/10 10:37:58;;;;;;;11.73;2.65;;;22.10;99.90;;;;;;5039028;28;20183;-80
2023/06/10 10:40:29;;;;;;;5.85;2.95;;;22.00;99.90;;;;;;5037736;28;20116;-81
2023/06/10 10:42:59;;;;;;;6.20;3.28;;;22.40;99.90;;;;;;5047575;28;20037;-80
2023/06/10 10:45:34;;;;;;;6.93;2.80;;;22.20;99.90;;;;;;5025758;28;20057;-79
2023/06/10 10:48:11;;;;;;;5.63;3.05;;;22.30;99.90;;;;;;5041716;28;20055;-79
2023/06/10 10:50:37;;;;;;;6.95;2.80;;;22.40;99.90;;;;;;5040380;28;20135;-79
2023/06/10 10:53:05;;;;;;;7.78;3.33;;;22.40;99.90;;;;;;5020923;28;20048;-81
2023/06/10 10:55:31;;;;;;;3.75;2.40;;;22.50;99.90;;;;;;5038066;28;20042;-80
2023/06/10 10:58:05;;;;;;;3.90;2.70;;;22.60;99.90;;;;;;5042637;28;20033;-80
2023/06/10 11:00:48;;;;;;;6.18;2.58;;;22.70;99.90;;;;;;5048399;28;20081;-81
2023/06/10 11:03:29;;;;;;;6.53;3.20;;;22.70;99.90;;;;;;5021234;28;20053;-79
2023/06/10 11:05:57;;;;;;;3.95;2.42;;;22.80;99.90;;;;;;5022592;28;20045;-80
2023/06/10 11:08:32;;;;;;;4.75;2.33;;;22.90;99.90;;;;;;5019350;28;20037;-79
2023/06/10 11:10:57;;;;;;;3.42;2.83;;;23.00;99.90;;;;;;5005034;28;20049;-80
2023/06/10 11:13:25;;;;;;;5.90;2.33;;;23.10;99.90;;;;;;5019593;28;20037;-80
2023/06/10 11:15:51;;;;;;;4.35;2.72;;;23.20;99.90;;;;;;5040788;28;20051;-80
2023/06/10 11:18:19;;;;;;;5.85;2.95;;;23.30;99.90;;;;;;5023362;28;20076;-80
2023/06/10 11:20:48;;;;;;;4.90;2.67;;;23.40;99.90;;;;;;5033295;28;20049;-80
2023/06/10 11:23:29;;;;;;;8.00;2.50;;;23.60;99.90;;;;;;5040404;28;20098;-80
2023/06/10 11:26:21;;;;;;;4.32;2.42;;;23.70;99.80;;;;;;5041510;28;20047;-81
2023/06/10 11:28:47;;;;;;;3.83;2.42;;;23.90;99.90;;;;;;5038276;28;20048;-81
2023/06/10 11:31:20;;;;;;;4.97;2.60;;;24.00;99.50;;;;;;5019869;28;20038;-81
2023/06/10 11:33:48;;;;;;;5.13;2.90;;;24.10;98.80;;;;;;5039569;28;20152;-81
2023/06/10 11:36:14;;;;;;;5.63;2.42;;;24.20;98.50;;;;;;5022456;28;20056;-80
2023/06/10 11:38:41;;;;;;;4.55;3.05;;;24.30;98.00;;;;;;5039565;28;20531;-80
2023/06/10 11:41:07;;;;;;;6.78;2.78;;;24.40;97.60;;;;;;5037486;28;20052;-81
2023/06/10 11:43:34;;;;;;;3.55;2.35;;;24.50;97.60;;;;;;5036945;28;20436;-80
2023/06/10 11:46:00;;;;;;;5.43;2.42;;;24.60;97.50;;;;;;5042178;28;20158;-81
2023/06/10 11:48:28;;;;;;;3.78;2.83;;;24.80;96.70;;;;;;5040730;28;20404;-81
2023/06/10 11:50:54;;;;;;;8.82;3.08;;;24.80;97.00;;;;;;5037131;28;20061;-81
2023/06/10 11:53:19;;;;;;;4.65;2.25;;;25.00;96.20;;;;;;5037001;28;20034;-81
2023/06/10 11:55:46;;;;;;;4.97;2.28;;;25.10;95.60;;;;;;5021507;28;20532;-81
2023/06/10 11:58:16;;;;;;;3.15;2.30;;;25.20;94.20;;;;;;5039954;28;20485;-81
2023/06/10 12:00:58;;;;;;;7.47;2.20;;;25.30;94.40;;;;;;5040647;28;20048;-81
2023/06/10 12:03:28;;;;;;;4.00;2.25;;;25.50;94.80;;;;;;5045576;28;20059;-81
2023/06/10 12:06:00;;;;;;;3.72;2.20;;;25.80;95.50;;;;;;5053402;28;20037;-81
2023/06/10 12:08:29;;;;;;;5.80;2.70;;;25.80;95.20;;;;;;5038138;28;20045;-81
2023/06/10 12:10:56;;;;;;;3.60;2.42;;;25.90;94.70;;;;;;5039083;28;20443;-81
2023/06/10 12:13:23;;;;;;;4.53;2.42;;;26.00;94.50;;;;;;5039958;28;20063;-81
2023/06/10 12:15:50;;;;;;;8.88;2.50;;;26.40;94.80;;;;;;5038812;28;20045;-82
2023/06/10 12:18:19;;;;;;;6.15;2.40;;;26.40;94.70;;;;;;5036621;28;20490;-81
2023/06/10 12:20:45;;;;;;;7.47;2.65;;;26.50;94.40;;;;;;5038277;28;20041;-82
2023/06/10 12:23:12;;;;;;;7.90;2.70;;;26.60;93.50;;;;;;5040468;28;20603;-81
2023/06/10 12:25:38;;;;;;;5.53;2.38;;;26.70;93.10;;;;;;5039404;28;20131;-81
2023/06/10 12:28:04;;;;;;;4.28;2.55;;;26.70;92.30;;;;;;5037289;28;20086;-81
2023/06/10 12:30:30;;;;;;;7.55;3.08;;;26.70;92.00;;;;;;5035652;28;20046;-82
2023/06/10 12:32:57;;;;;;;4.72;2.15;;;27.10;92.30;;;;;;5041272;28;20090;-81
2023/06/10 12:35:25;;;;;;;5.75;2.45;;;26.90;92.50;;;;;;5044048;28;20466;-82
2023/06/10 12:38:03;;;;;;;3.85;2.20;;;27.00;92.00;;;;;;5043259;28;20511;-81
2023/06/10 12:40:40;;;;;;;3.10;2.45;;;27.10;90.90;;;;;;5040617;28;20523;-81
2023/06/10 12:43:06;;;;;;;2.88;2.00;;;27.10;90.90;;;;;;5006734;28;20484;-81
2023/06/10 12:45:39;;;;;;;2.95;2.33;;;27.20;91.00;;;;;;5040657;28;20037;-81